createdAt,value
2023-05-02T00:00:51.706Z,21.80
2023-05-02T00:03:22.918Z,22.30
2023-05-02T00:05:54.126Z,23.10
2023-05-02T00:08:25.005Z,22.67
2023-05-02T00:10:55.827Z,22.33
2023-05-02T00:13:28.119Z,24.77
2023-05-02T00:16:01.745Z,24.30
2023-05-02T00:18:32.733Z,24.77
2023-05-02T00:21:03.707Z,25.37
2023-05-02T00:23:34.570Z,25.33
2023-05-02T00:26:05.650Z,25.50
2023-05-02T00:28:36.706Z,25.33
2023-05-02T00:31:10.638Z,25.00
2023-05-02T00:33:41.550Z,25.33
2023-05-02T00:36:17.344Z,25.63
2023-05-02T00:38:48.716Z,25.07
2023-05-02T00:41:20.293Z,25.50
2023-05-02T00:43:53.850Z,25.03
2023-05-02T00:46:27.417Z,25.67
2023-05-02T00:48:58.335Z,25.27
2023-05-02T00:51:30.221Z,27.20
2023-05-02T00:54:01.821Z,28.53
2023-05-02T00:56:32.678Z,26.50
2023-05-02T00:59:03.603Z,27.07
2023-05-02T01:01:53.158Z,27.00
2023-05-02T01:04:34.823Z,26.37
2023-05-02T01:07:24.276Z,25.40
2023-05-02T01:10:06.368Z,28.07
2023-05-02T01:12:45.139Z,26.20
2023-05-02T01:15:21.905Z,27.30
2023-05-02T01:17:57.141Z,25.77
2023-05-02T01:20:32.074Z,26.50
2023-05-02T01:23:09.904Z,26.90
2023-05-02T01:25:56.556Z,27.13
2023-05-02T01:28:38.239Z,27.80
2023-05-02T01:31:11.817Z,28.37
2023-05-02T01:33:43.516Z,27.37
2023-05-02T01:36:17.521Z,29.00
2023-05-02T01:38:49.058Z,29.00
2023-05-02T01:41:22.644Z,27.67
2023-05-02T01:43:54.203Z,28.00
2023-05-02T01:46:29.758Z,29.90
2023-05-02T01:49:01.613Z,30.73
2023-05-02T01:51:35.958Z,31.20
2023-05-02T01:54:09.540Z,32.07
2023-05-02T01:56:42.223Z,31.50
2023-05-02T01:59:17.452Z,31.00
2023-05-02T02:01:52.913Z,30.50
2023-05-02T02:04:24.415Z,32.60
2023-05-02T02:07:00.741Z,31.57
2023-05-02T02:09:35.141Z,31.53
2023-05-02T02:12:09.974Z,30.83
2023-05-02T02:14:44.660Z,32.90
2023-05-02T02:17:31.717Z,31.40
2023-05-02T02:20:06.119Z,33.50
2023-05-02T02:22:41.542Z,32.10
2023-05-02T02:25:15.823Z,33.20
2023-05-02T02:31:14.489Z,30.60
2023-05-02T02:33:48.014Z,30.70
2023-05-02T02:36:28.856Z,32.07
2023-05-02T02:39:12.100Z,29.90
2023-05-02T02:41:48.257Z,30.70
2023-05-02T02:44:31.327Z,30.63
2023-05-02T02:47:09.264Z,29.20
2023-05-02T02:49:50.964Z,29.50
2023-05-02T02:52:29.591Z,29.20
2023-05-02T02:55:09.097Z,27.97
2023-05-02T02:57:45.317Z,26.97
2023-05-02T03:00:21.472Z,27.97
2023-05-02T03:02:53.432Z,25.50
2023-05-02T03:05:27.502Z,26.47
2023-05-02T03:08:01.114Z,26.00
2023-05-02T03:10:33.819Z,24.50
2023-05-02T03:13:05.053Z,24.70
2023-05-02T03:16:24.706Z,22.27
2023-05-02T03:18:55.559Z,22.07
2023-05-02T03:21:31.709Z,22.63
2023-05-02T03:24:05.191Z,23.00
2023-05-02T03:26:36.209Z,21.90
2023-05-02T03:29:07.280Z,20.10
2023-05-02T03:31:38.249Z,21.03
2023-05-02T03:34:09.217Z,19.93
2023-05-02T03:36:42.667Z,19.43
2023-05-02T03:39:13.653Z,19.13
2023-05-02T03:41:44.952Z,19.13
2023-05-02T03:44:15.799Z,20.10
2023-05-02T03:46:47.053Z,18.27
2023-05-02T03:49:19.731Z,17.57
2023-05-02T03:51:53.242Z,17.87
2023-05-02T03:54:24.170Z,17.70
2023-05-02T03:56:59.615Z,16.57
2023-05-02T03:59:30.535Z,16.17
2023-05-02T04:02:01.929Z,15.07
2023-05-02T04:04:32.844Z,15.60
2023-05-02T04:07:07.978Z,16.63
2023-05-02T04:09:38.821Z,15.30
2023-05-02T04:12:11.635Z,15.70
2023-05-02T04:14:42.462Z,15.33
2023-05-02T04:17:13.765Z,15.90
2023-05-02T04:19:44.672Z,15.93
2023-05-02T04:22:18.104Z,15.87
2023-05-02T04:24:48.966Z,16.17
2023-05-02T04:27:19.996Z,15.97
2023-05-02T04:29:51.569Z,15.80
2023-05-02T04:32:22.456Z,15.50
2023-05-02T04:34:55.047Z,15.90
2023-05-02T04:37:28.809Z,14.70
2023-05-02T04:39:59.953Z,14.90
2023-05-02T04:52:23.016Z,15.13
2023-05-02T04:55:14.057Z,14.20
2023-05-02T04:57:45.304Z,14.80
2023-05-02T05:00:17.333Z,15.53
2023-05-02T05:02:48.284Z,13.57
2023-05-02T05:05:19.289Z,14.23
2023-05-02T05:07:50.175Z,15.10
2023-05-02T05:10:23.654Z,14.27
2023-05-02T05:12:54.748Z,15.70
2023-05-02T05:15:26.240Z,15.00
2023-05-02T05:17:57.562Z,15.33
2023-05-02T05:20:28.665Z,15.00
2023-05-02T05:23:00.056Z,15.30
2023-05-02T05:25:34.054Z,17.00
2023-05-02T05:28:05.155Z,16.63
2023-05-02T05:30:36.184Z,15.10
2023-05-02T05:33:10.206Z,15.80
2023-05-02T05:35:41.340Z,15.73
2023-05-02T05:38:12.440Z,15.80
2023-05-02T05:40:46.514Z,15.27
2023-05-02T05:43:17.874Z,12.80
2023-05-02T05:45:48.854Z,12.50
2023-05-02T05:48:22.405Z,10.53
2023-05-02T05:50:53.987Z,10.10
2023-05-02T05:53:24.961Z,9.90
2023-05-02T05:55:58.513Z,10.20
2023-05-02T05:58:29.426Z,9.90
2023-05-02T06:01:00.428Z,8.47
2023-05-02T06:03:31.804Z,7.50
2023-05-02T06:06:03.466Z,7.53
2023-05-02T06:08:40.246Z,7.13
2023-05-02T06:11:20.580Z,6.47
2023-05-02T06:13:51.562Z,5.80
2023-05-02T06:16:22.921Z,6.90
2023-05-02T06:18:55.429Z,5.80
2023-05-02T06:21:26.381Z,5.90
2023-05-02T06:23:57.224Z,5.77
2023-05-02T06:26:30.918Z,4.80
2023-05-02T06:29:02.687Z,5.50
2023-05-02T06:31:33.653Z,4.90
2023-05-02T06:34:04.532Z,5.17
2023-05-02T06:36:35.425Z,5.60
2023-05-02T06:39:06.607Z,5.60
2023-05-02T06:41:40.396Z,5.60
2023-05-02T06:55:19.323Z,5.13
2023-05-02T06:57:53.653Z,4.83
2023-05-02T07:00:25.044Z,5.30
2023-05-02T07:02:56.690Z,4.70
2023-05-02T07:05:27.596Z,5.30
2023-05-02T07:07:58.441Z,4.80
2023-05-02T07:10:29.467Z,4.60
2023-05-02T07:13:04.816Z,4.40
2023-05-02T07:15:35.768Z,4.77
2023-05-02T07:18:06.834Z,4.50
2023-05-02T07:20:38.941Z,4.60
2023-05-02T07:23:09.816Z,4.90
2023-05-02T07:25:40.926Z,4.90
2023-05-02T07:28:14.636Z,4.30
2023-05-02T07:30:46.117Z,4.30
2023-05-02T07:33:21.655Z,4.20
2023-05-02T07:35:52.553Z,4.77
2023-05-02T07:38:23.388Z,5.43
2023-05-02T07:40:54.401Z,4.57
2023-05-02T07:43:28.135Z,4.50
2023-05-02T07:45:59.014Z,4.57
2023-05-02T07:48:30.411Z,4.60
2023-05-02T07:51:09.349Z,4.20
2023-05-02T07:53:40.270Z,2.73
2023-05-02T07:56:12.922Z,3.07
2023-05-02T07:58:46.430Z,3.00
2023-05-02T08:01:17.397Z,2.60
2023-05-02T08:03:50.140Z,3.90
2023-05-02T08:06:21.393Z,4.13
2023-05-02T08:08:52.670Z,2.90
2023-05-02T08:11:25.953Z,2.97
2023-05-02T08:13:59.405Z,2.93
2023-05-02T08:16:33.136Z,2.60
2023-05-02T08:19:04.018Z,2.87
2023-05-02T08:21:34.961Z,2.50
2023-05-02T08:24:06.036Z,2.20
2023-05-02T08:26:36.841Z,2.83
2023-05-02T08:29:11.862Z,2.50
2023-05-02T08:31:44.116Z,2.90
2023-05-02T08:34:14.980Z,3.70
2023-05-02T08:36:45.853Z,3.43
2023-05-02T08:39:17.243Z,3.13
2023-05-02T08:41:48.152Z,4.00
2023-05-02T08:44:21.670Z,4.43
2023-05-02T08:46:53.778Z,3.87
2023-05-02T08:49:25.885Z,3.90
2023-05-02T08:51:58.024Z,4.03
2023-05-02T08:54:29.882Z,4.87
2023-05-02T08:57:04.120Z,4.90
2023-05-02T08:59:37.564Z,5.40
2023-05-02T09:02:15.507Z,5.53
2023-05-02T09:04:47.978Z,4.67
2023-05-02T09:07:22.287Z,4.90
2023-05-02T09:09:56.315Z,4.60
2023-05-02T09:12:29.078Z,5.00
2023-05-02T09:15:19.853Z,4.30
2023-05-02T09:17:51.980Z,5.10
2023-05-02T09:20:22.893Z,5.30
2023-05-02T09:22:54.938Z,5.20
2023-05-02T09:25:28.872Z,5.60
2023-05-02T09:28:01.931Z,5.17
2023-05-02T09:30:35.501Z,5.10
2023-05-02T09:33:06.488Z,4.40
2023-05-02T09:35:37.345Z,4.97
2023-05-02T09:38:22.538Z,4.67
2023-05-02T09:40:57.257Z,4.20
2023-05-02T09:43:28.862Z,4.30
2023-05-02T09:46:03.623Z,4.40
2023-05-02T09:48:35.863Z,4.60
2023-05-02T09:51:06.976Z,4.60
2023-05-02T09:53:47.230Z,4.70
2023-05-02T09:56:18.604Z,5.33
2023-05-02T09:58:49.449Z,5.07
2023-05-02T10:01:23.310Z,4.63
2023-05-02T10:03:54.779Z,4.53
2023-05-02T10:06:26.101Z,5.40
2023-05-02T10:08:56.993Z,5.40
2023-05-02T10:11:31.498Z,4.70
2023-05-02T10:14:03.053Z,4.73
2023-05-02T10:16:41.733Z,4.37
2023-05-02T10:19:17.220Z,3.43
2023-05-02T10:21:48.506Z,3.90
2023-05-02T10:24:20.155Z,3.97
2023-05-02T10:26:51.789Z,4.83
2023-05-02T10:29:23.312Z,4.20
2023-05-02T10:31:56.968Z,4.43
2023-05-02T10:34:28.422Z,3.60
2023-05-02T10:37:01.536Z,4.57
2023-05-02T10:39:33.523Z,3.80
2023-05-02T10:42:06.323Z,4.30
2023-05-02T10:44:37.637Z,4.60
2023-05-02T10:47:27.667Z,3.87
2023-05-02T10:50:00.148Z,3.80
2023-05-02T10:52:33.343Z,4.30
2023-05-02T10:55:18.092Z,4.53
2023-05-02T10:58:26.132Z,4.13
2023-05-02T11:00:57.011Z,3.90
2023-05-02T11:03:58.675Z,3.67
2023-05-02T11:06:36.169Z,3.80
2023-05-02T11:09:35.882Z,3.60
2023-05-02T11:12:07.896Z,3.60
2023-05-02T11:14:51.788Z,3.50
2023-05-02T11:17:22.778Z,3.90
2023-05-02T11:20:27.438Z,3.90
2023-05-02T11:23:02.734Z,4.30
2023-05-02T11:25:35.665Z,4.27
2023-05-02T11:28:09.747Z,3.60
2023-05-02T11:30:43.890Z,4.40
2023-05-02T11:33:22.159Z,4.00
2023-05-02T11:35:53.088Z,4.60
2023-05-02T11:38:27.343Z,5.63
2023-05-02T11:41:00.262Z,4.57
2023-05-02T11:43:32.710Z,4.10
2023-05-02T11:46:07.509Z,4.40
2023-05-02T11:48:39.122Z,3.40
2023-05-02T11:54:34.560Z,4.20
2023-05-02T11:57:08.093Z,3.77
2023-05-02T11:59:53.007Z,4.80
2023-05-02T12:02:38.095Z,3.67
2023-05-02T12:05:10.601Z,3.70
2023-05-02T12:07:42.899Z,3.83
2023-05-02T12:10:14.920Z,4.63
2023-05-02T12:12:48.377Z,4.83
2023-05-02T12:15:19.878Z,3.80
2023-05-02T12:17:52.329Z,4.40
2023-05-02T12:20:23.669Z,3.97
2023-05-02T12:22:54.699Z,4.00
2023-05-02T12:25:27.927Z,4.10
2023-05-02T12:28:07.773Z,3.80
2023-05-02T12:30:41.980Z,5.13
2023-05-02T12:33:12.805Z,3.93
2023-05-02T12:35:43.707Z,3.60
2023-05-02T12:38:16.618Z,4.17
2023-05-02T12:40:52.702Z,3.30
2023-05-02T12:43:26.433Z,4.27
2023-05-02T12:46:12.554Z,3.33
2023-05-02T12:48:44.855Z,3.30
2023-05-02T12:51:28.773Z,3.50
2023-05-02T12:54:00.032Z,2.60
2023-05-02T12:56:32.904Z,3.10
2023-05-02T12:59:06.645Z,2.97
2023-05-02T13:01:37.843Z,3.30
2023-05-02T13:04:08.895Z,2.20
2023-05-02T13:06:40.907Z,2.60
2023-05-02T13:09:11.758Z,3.50
2023-05-02T13:11:45.163Z,3.60
2023-05-02T13:14:18.941Z,3.30
2023-05-02T13:16:49.883Z,2.97
2023-05-02T13:19:20.972Z,2.93
2023-05-02T13:21:52.186Z,3.70
2023-05-02T13:24:22.985Z,3.00
2023-05-02T13:26:53.928Z,3.37
2023-05-02T13:29:27.310Z,3.70
2023-05-02T13:31:58.116Z,3.20
2023-05-02T13:34:28.894Z,3.77
2023-05-02T13:36:59.696Z,4.03
2023-05-02T13:39:30.551Z,4.07
2023-05-02T13:42:06.136Z,3.80
2023-05-02T13:44:40.033Z,4.00
2023-05-02T13:47:10.910Z,3.70
2023-05-02T13:49:41.910Z,4.00
2023-05-02T13:52:12.731Z,4.23
2023-05-02T13:54:43.610Z,4.20
2023-05-02T13:57:14.833Z,4.10
2023-05-02T13:59:48.409Z,4.27
2023-05-02T14:02:19.246Z,3.73
2023-05-02T14:04:50.072Z,4.50
2023-05-02T14:07:20.987Z,3.90
2023-05-02T14:09:51.909Z,4.00
2023-05-02T14:12:22.735Z,4.30
2023-05-02T14:14:56.322Z,3.47
2023-05-02T14:17:28.056Z,4.60
2023-05-02T14:19:59.219Z,5.00
2023-05-02T14:22:30.286Z,4.50
2023-05-02T14:25:01.098Z,4.37
2023-05-02T14:27:31.956Z,4.07
2023-05-02T14:30:05.764Z,4.17
2023-05-02T14:32:36.869Z,4.87
2023-05-02T14:35:09.099Z,4.87
2023-05-02T14:37:39.970Z,5.20
2023-05-02T14:40:12.477Z,5.70
2023-05-02T14:42:43.785Z,4.90
2023-05-02T14:45:17.452Z,4.93
2023-05-02T14:47:48.275Z,5.00
2023-05-02T14:50:19.301Z,5.20
2023-05-02T14:52:52.728Z,5.03
2023-05-02T14:55:24.179Z,5.30
2023-05-02T14:57:56.079Z,5.40
2023-05-02T15:00:29.756Z,5.17
2023-05-02T15:03:01.965Z,5.07
2023-05-02T15:05:33.701Z,5.07
2023-05-02T15:08:04.650Z,5.17
2023-05-02T15:10:39.010Z,5.20
2023-05-02T15:13:09.943Z,5.80
2023-05-02T15:15:43.500Z,5.27
2023-05-02T15:18:14.636Z,5.47
2023-05-02T15:20:45.701Z,5.60
2023-05-02T15:23:16.607Z,5.90
2023-05-02T15:25:47.457Z,5.90
2023-05-02T15:28:18.253Z,6.00
2023-05-02T15:30:51.881Z,5.60
2023-05-02T15:33:22.709Z,5.70
2023-05-02T15:36:00.990Z,6.57
2023-05-02T15:38:34.125Z,5.93
2023-05-02T15:41:04.966Z,5.37
2023-05-02T15:43:35.785Z,5.67
2023-05-02T15:46:09.274Z,6.30
2023-05-02T15:48:40.653Z,5.27
2023-05-02T15:51:13.655Z,5.57
2023-05-02T15:53:49.810Z,6.00
2023-05-02T15:56:22.975Z,5.70
2023-05-02T15:58:53.924Z,5.67
2023-05-02T16:01:27.388Z,5.77
2023-05-02T16:03:58.287Z,6.00
2023-05-02T16:06:30.664Z,5.30
2023-05-02T16:09:03.419Z,6.70
2023-05-02T16:11:39.961Z,5.63
2023-05-02T16:14:10.914Z,6.10
2023-05-02T16:16:44.534Z,5.67
2023-05-02T16:19:15.411Z,5.57
2023-05-02T16:21:46.454Z,5.97
2023-05-02T16:24:17.385Z,6.67
2023-05-02T16:26:48.309Z,5.53
2023-05-02T16:29:19.201Z,5.70
2023-05-02T16:31:52.671Z,5.90
2023-05-02T16:34:23.585Z,5.83
2023-05-02T16:36:54.670Z,6.03
2023-05-02T16:39:25.622Z,5.77
2023-05-02T16:41:56.451Z,6.83
2023-05-02T16:44:27.269Z,6.40
2023-05-02T16:47:01.186Z,6.40
2023-05-02T16:49:32.225Z,5.20
2023-05-02T16:52:03.060Z,5.30
2023-05-02T16:54:33.855Z,5.57
2023-05-02T16:57:04.627Z,5.97
2023-05-02T16:59:35.453Z,5.10
2023-05-02T17:02:09.309Z,5.60
2023-05-02T17:04:40.175Z,5.30
2023-05-02T17:07:12.268Z,5.50
2023-05-02T17:09:44.705Z,4.73
2023-05-02T17:12:22.507Z,4.40
2023-05-02T17:14:53.398Z,5.10
2023-05-02T17:17:26.795Z,5.57
2023-05-02T17:19:57.748Z,5.30
2023-05-02T17:22:28.690Z,5.00
2023-05-02T17:24:59.534Z,5.67
2023-05-02T17:27:32.304Z,5.27
2023-05-02T17:30:03.298Z,5.47
2023-05-02T17:32:37.765Z,4.87
2023-05-02T17:35:09.459Z,5.50
2023-05-02T17:37:40.900Z,5.20
2023-05-02T17:40:12.999Z,4.60
2023-05-02T17:42:46.539Z,4.63
2023-05-02T17:45:17.538Z,5.23
2023-05-02T17:47:51.181Z,5.00
2023-05-02T17:50:22.438Z,5.30
2023-05-02T17:52:53.595Z,5.13
2023-05-02T17:55:24.456Z,4.53
2023-05-02T17:57:55.378Z,5.23
2023-05-02T18:00:26.420Z,5.30
2023-05-02T18:03:00.000Z,4.87
2023-05-02T18:05:31.219Z,5.00
2023-05-02T18:08:02.136Z,5.20
2023-05-02T18:10:32.970Z,5.20
2023-05-02T18:13:03.861Z,4.83
2023-05-02T18:15:34.743Z,4.87
2023-05-02T18:18:08.315Z,5.27
2023-05-02T18:20:43.478Z,4.30
2023-05-02T18:23:14.492Z,5.60
2023-05-02T18:25:45.376Z,4.93
2023-05-02T18:28:16.187Z,4.90
2023-05-02T18:30:47.084Z,5.07
2023-05-02T18:33:20.824Z,5.37
2023-05-02T18:35:52.046Z,5.10
2023-05-02T18:38:23.056Z,5.50
2023-05-02T18:40:53.905Z,5.17
2023-05-02T18:43:26.940Z,5.17
2023-05-02T18:45:57.964Z,5.10
2023-05-02T18:48:31.618Z,4.90
2023-05-02T18:51:02.808Z,5.47
2023-05-02T18:53:33.732Z,5.50
2023-05-02T18:56:04.653Z,5.23
2023-05-02T18:58:35.458Z,5.67
2023-05-02T19:01:15.300Z,5.90
2023-05-02T19:03:48.979Z,5.40
2023-05-02T19:06:20.589Z,5.70
2023-05-02T19:08:52.929Z,4.70
2023-05-02T19:11:23.887Z,5.60
2023-05-02T19:13:56.847Z,5.80
2023-05-02T19:16:29.242Z,4.40
2023-05-02T19:19:05.699Z,4.37
2023-05-02T19:21:36.955Z,4.60
2023-05-02T19:24:08.474Z,4.23
2023-05-02T19:26:39.326Z,4.70
2023-05-02T19:29:10.321Z,4.73
2023-05-02T19:31:42.696Z,5.30
2023-05-02T19:34:16.201Z,4.20
2023-05-02T19:36:47.054Z,4.53
2023-05-02T19:39:17.858Z,4.80
2023-05-02T19:41:50.040Z,5.03
2023-05-02T19:44:21.632Z,4.53
2023-05-02T19:46:52.523Z,4.80
2023-05-02T19:49:26.105Z,4.47
2023-05-02T19:51:56.919Z,4.37
2023-05-02T19:54:27.753Z,4.03
2023-05-02T19:56:58.749Z,4.60
2023-05-02T19:59:29.554Z,4.67
2023-05-02T20:02:00.349Z,4.00
2023-05-02T20:04:33.845Z,4.00
2023-05-02T20:07:04.825Z,3.07
2023-05-02T20:09:35.660Z,3.77
2023-05-02T20:12:06.971Z,2.97
2023-05-02T20:14:37.770Z,3.23
2023-05-02T20:17:08.961Z,3.40
2023-05-02T20:19:42.384Z,3.20
2023-05-02T20:22:14.638Z,4.00
2023-05-02T20:24:45.595Z,3.90
2023-05-02T20:27:16.564Z,3.10
2023-05-02T20:29:47.452Z,3.63
2023-05-02T20:32:18.379Z,3.33
2023-05-02T20:34:51.914Z,3.47
2023-05-02T20:37:23.167Z,3.77
2023-05-02T20:39:54.054Z,3.97
2023-05-02T20:42:27.057Z,3.50
2023-05-02T20:44:59.300Z,3.80
2023-05-02T20:47:31.270Z,4.43
2023-05-02T20:50:05.046Z,3.80
2023-05-02T20:52:36.004Z,3.80
2023-05-02T20:55:07.499Z,3.60
2023-05-02T20:57:38.603Z,3.77
2023-05-02T21:00:11.470Z,4.10
2023-05-02T21:02:42.413Z,3.93
2023-05-02T21:05:15.954Z,4.53
2023-05-02T21:07:47.142Z,4.10
2023-05-02T21:10:17.952Z,4.40
2023-05-02T21:12:48.751Z,3.90
2023-05-02T21:15:20.079Z,4.27
2023-05-02T21:17:52.579Z,3.73
2023-05-02T21:20:27.456Z,4.60
2023-05-02T21:22:58.396Z,4.80
2023-05-02T21:25:29.228Z,4.37
2023-05-02T21:28:03.025Z,4.40
2023-05-02T21:30:33.915Z,4.30
2023-05-02T21:33:07.810Z,4.50
2023-05-02T21:35:41.226Z,4.63
2023-05-02T21:38:12.220Z,4.50
2023-05-02T21:40:43.046Z,5.10
2023-05-02T21:43:13.812Z,5.43
2023-05-02T21:45:48.467Z,4.70
2023-05-02T21:48:20.435Z,4.90
2023-05-02T21:50:54.320Z,5.13
2023-05-02T21:53:25.214Z,4.80
2023-05-02T21:55:56.198Z,4.80
2023-05-02T21:58:27.012Z,4.70
2023-05-02T22:00:58.071Z,4.73
2023-05-02T22:03:30.266Z,5.30
2023-05-02T22:06:06.833Z,5.20
2023-05-02T22:08:38.163Z,4.97
2023-05-02T22:11:10.461Z,5.87
2023-05-02T22:13:41.394Z,6.43
2023-05-02T22:16:12.445Z,6.40
2023-05-02T22:18:44.757Z,6.13
2023-05-02T22:21:18.979Z,6.43
2023-05-02T22:23:49.794Z,6.70
2023-05-02T22:26:20.864Z,6.83
2023-05-02T22:28:51.765Z,5.87
2023-05-02T22:31:22.623Z,6.00
2023-05-02T22:33:53.437Z,6.10
2023-05-02T22:36:27.874Z,6.50
2023-05-02T22:38:58.901Z,6.60
2023-05-02T22:41:29.670Z,6.70
2023-05-02T22:44:00.481Z,5.93
2023-05-02T22:46:31.664Z,6.03
2023-05-02T22:49:03.032Z,5.83
2023-05-02T22:51:36.458Z,5.53
2023-05-02T22:54:10.400Z,5.90
2023-05-02T22:56:41.270Z,5.90
2023-05-02T22:59:13.108Z,5.23
2023-05-02T23:01:44.131Z,5.33
2023-05-02T23:04:15.091Z,6.43
2023-05-02T23:06:48.677Z,5.53
2023-05-02T23:09:19.668Z,5.93
2023-05-02T23:11:51.549Z,5.77
2023-05-02T23:14:23.117Z,6.23
2023-05-02T23:16:54.838Z,5.63
2023-05-02T23:19:26.009Z,5.70
2023-05-02T23:21:59.756Z,5.47
2023-05-02T23:24:31.077Z,5.67
2023-05-02T23:27:04.812Z,6.43
2023-05-02T23:29:35.705Z,6.10
2023-05-02T23:32:09.670Z,5.60
2023-05-02T23:34:41.416Z,5.67
2023-05-02T23:37:15.530Z,5.77
2023-05-02T23:40:02.040Z,5.80
2023-05-02T23:42:54.972Z,5.50
2023-05-02T23:45:25.996Z,6.10
2023-05-02T23:47:59.251Z,5.87
2023-05-02T23:50:30.605Z,5.30
2023-05-02T23:53:04.284Z,6.20
2023-05-02T23:55:35.223Z,5.77
2023-05-02T23:58:07.223Z,5.90
